createdAt,value
2019-06-10T00:01:11.836Z,17.40
2019-06-10T00:03:42.142Z,17.30
2019-06-10T00:06:11.546Z,17.30
2019-06-10T00:08:41.224Z,17.20
2019-06-10T00:11:11.688Z,17.20
2019-06-10T00:13:41.423Z,17.20
2019-06-10T00:16:11.451Z,17.20
2019-06-10T00:18:43.041Z,17.20
2019-06-10T00:21:11.332Z,17.20
2019-06-10T00:23:41.317Z,17.20
2019-06-10T00:26:12.480Z,17.20
2019-06-10T00:28:40.930Z,17.10
2019-06-10T00:31:11.451Z,17.10
2019-06-10T00:33:41.397Z,17.10
2019-06-10T00:36:13.459Z,17.10
2019-06-10T00:38:41.284Z,17.10
2019-06-10T00:41:13.969Z,17.00
2019-06-10T00:43:41.120Z,17.10
2019-06-10T00:46:13.051Z,17.00
2019-06-10T00:48:41.113Z,17.00
2019-06-10T00:51:12.926Z,17.00
2019-06-10T00:53:42.269Z,17.00
2019-06-10T00:56:14.174Z,16.90
2019-06-10T00:58:41.560Z,16.90
2019-06-10T01:01:13.976Z,16.90
2019-06-10T01:03:41.538Z,16.80
2019-06-10T01:06:13.690Z,16.80
2019-06-10T01:08:41.063Z,16.70
2019-06-10T01:11:17.397Z,16.70
2019-06-10T01:13:41.401Z,16.60
2019-06-10T01:16:12.588Z,16.50
2019-06-10T01:18:41.594Z,16.50
2019-06-10T01:21:13.859Z,16.40
2019-06-10T01:23:42.423Z,16.40
2019-06-10T01:26:12.904Z,16.40
2019-06-10T01:28:41.770Z,16.40
2019-06-10T01:31:15.888Z,16.30
2019-06-10T01:33:41.257Z,16.30
2019-06-10T01:36:12.657Z,16.30
2019-06-10T01:38:40.951Z,16.20
2019-06-10T01:41:11.099Z,16.20
2019-06-10T01:43:40.800Z,16.20
2019-06-10T01:46:12.622Z,16.10
2019-06-10T01:48:45.013Z,16.00
2019-06-10T01:51:13.446Z,16.00
2019-06-10T01:53:42.841Z,15.90
2019-06-10T01:56:12.784Z,16.00
2019-06-10T01:58:42.188Z,15.90
2019-06-10T02:01:18.575Z,15.90
2019-06-10T02:03:46.080Z,15.90
2019-06-10T02:06:18.264Z,15.90
2019-06-10T02:08:45.419Z,15.90
2019-06-10T02:11:17.027Z,15.90
2019-06-10T02:13:44.807Z,15.80
2019-06-10T02:16:15.697Z,15.80
2019-06-10T02:18:56.874Z,15.70
2019-06-10T02:21:16.370Z,15.70
2019-06-10T02:23:45.156Z,15.70
2019-06-10T02:26:16.186Z,15.70
2019-06-10T02:28:44.536Z,15.60
2019-06-10T02:31:18.715Z,15.60
2019-06-10T02:33:43.895Z,15.60
2019-06-10T02:36:15.931Z,15.60
2019-06-10T02:38:44.424Z,15.60
2019-06-10T02:41:16.338Z,15.60
2019-06-10T02:43:44.365Z,15.60
2019-06-10T02:46:15.536Z,15.60
2019-06-10T02:48:43.836Z,15.60
2019-06-10T02:51:15.117Z,15.60
2019-06-10T02:53:43.763Z,15.60
2019-06-10T02:56:14.711Z,15.50
2019-06-10T02:58:45.030Z,15.50
2019-06-10T03:01:16.379Z,15.50
2019-06-10T03:03:49.118Z,15.40
2019-06-10T03:06:17.979Z,15.50
2019-06-10T03:08:45.239Z,15.40
2019-06-10T03:11:14.859Z,15.40
2019-06-10T03:13:44.640Z,15.40
2019-06-10T03:16:23.065Z,15.40
2019-06-10T03:18:52.519Z,15.40
2019-06-10T03:21:24.210Z,15.30
2019-06-10T03:23:53.133Z,15.30
2019-06-10T03:26:25.262Z,15.30
2019-06-10T03:28:52.614Z,15.30
2019-06-10T03:31:28.345Z,15.30
2019-06-10T03:33:54.305Z,15.30
2019-06-10T03:36:23.090Z,15.30
2019-06-10T03:38:53.687Z,15.20
2019-06-10T03:41:23.713Z,15.30
2019-06-10T03:43:53.275Z,15.20
2019-06-10T03:46:24.240Z,15.30
2019-06-10T03:48:52.758Z,15.20
2019-06-10T03:51:23.951Z,15.20
2019-06-10T03:53:53.125Z,15.20
2019-06-10T03:56:24.678Z,15.10
2019-06-10T03:58:52.667Z,15.10
2019-06-10T04:01:24.472Z,15.10
2019-06-10T04:03:52.984Z,15.10
2019-06-10T04:06:24.217Z,15.20
2019-06-10T04:08:52.603Z,15.20
2019-06-10T04:11:24.058Z,15.20
2019-06-10T04:13:53.531Z,15.20
2019-06-10T04:16:24.217Z,15.10
2019-06-10T04:18:53.469Z,15.20
2019-06-10T04:21:23.900Z,15.10
2019-06-10T04:23:53.001Z,15.20
2019-06-10T04:26:24.607Z,15.20
2019-06-10T04:28:53.069Z,15.20
2019-06-10T04:31:23.765Z,15.20
2019-06-10T04:33:52.506Z,15.20
2019-06-10T04:36:24.669Z,15.30
2019-06-10T04:38:52.553Z,15.30
2019-06-10T04:41:24.317Z,15.30
2019-06-10T04:43:53.156Z,15.40
2019-06-10T04:46:23.700Z,15.30
2019-06-10T04:48:53.349Z,15.30
2019-06-10T04:51:23.881Z,15.40
2019-06-10T04:53:52.840Z,15.30
2019-06-10T04:56:24.220Z,15.30
2019-06-10T04:58:52.679Z,15.40
2019-06-10T05:01:24.004Z,15.40
2019-06-10T05:03:52.764Z,15.40
2019-06-10T05:06:23.867Z,15.40
2019-06-10T05:08:53.793Z,15.50
2019-06-10T05:11:25.157Z,15.50
2019-06-10T05:13:53.496Z,15.60
2019-06-10T05:16:26.676Z,15.60
2019-06-10T05:18:54.903Z,15.60
2019-06-10T05:21:27.560Z,15.60
2019-06-10T05:23:53.880Z,15.60
2019-06-10T05:26:25.645Z,15.70
2019-06-10T05:28:53.650Z,15.70
2019-06-10T05:31:25.212Z,15.80
2019-06-10T05:33:53.160Z,15.80
2019-06-10T05:36:25.675Z,15.80
2019-06-10T05:38:52.793Z,15.90
2019-06-10T05:41:24.205Z,15.90
2019-06-10T05:43:52.458Z,16.00
2019-06-10T05:46:22.782Z,16.00
2019-06-10T05:48:52.664Z,16.00
2019-06-10T05:51:24.081Z,16.10
2019-06-10T05:53:52.808Z,16.10
2019-06-10T05:56:23.687Z,16.10
2019-06-10T05:58:52.641Z,16.20
2019-06-10T06:01:22.909Z,16.30
2019-06-10T06:03:53.016Z,16.30
2019-06-10T06:06:23.010Z,16.30
2019-06-10T06:08:53.435Z,16.40
2019-06-10T06:11:23.210Z,16.40
2019-06-10T06:13:52.395Z,16.40
2019-06-10T06:16:23.031Z,16.50
2019-06-10T06:18:52.630Z,16.50
2019-06-10T06:21:29.193Z,16.60
2019-06-10T06:23:52.919Z,16.60
2019-06-10T06:26:23.654Z,16.70
2019-06-10T06:28:53.490Z,16.70
2019-06-10T06:31:23.222Z,16.80
2019-06-10T06:33:52.702Z,16.80
2019-06-10T06:36:22.542Z,16.90
2019-06-10T06:38:53.147Z,16.90
2019-06-10T06:41:22.782Z,17.00
2019-06-10T06:43:53.094Z,17.10
2019-06-10T06:46:23.405Z,17.10
2019-06-10T06:48:53.225Z,17.10
2019-06-10T06:51:35.950Z,17.20
2019-06-10T06:53:56.103Z,17.20
2019-06-10T06:56:23.499Z,17.30
2019-06-10T06:58:52.624Z,17.30
2019-06-10T07:01:25.107Z,17.30
2019-06-10T07:03:53.597Z,17.30
2019-06-10T07:06:24.087Z,17.30
2019-06-10T07:09:04.311Z,17.40
2019-06-10T07:11:25.873Z,17.40
2019-06-10T07:13:56.211Z,17.40
2019-06-10T07:16:25.121Z,17.40
2019-06-10T07:18:54.191Z,17.30
2019-06-10T07:21:23.215Z,17.40
2019-06-10T07:23:52.832Z,17.40
2019-06-10T07:26:22.388Z,17.30
2019-06-10T07:28:53.687Z,17.30
2019-06-10T07:31:27.494Z,17.40
2019-06-10T07:33:52.737Z,17.40
2019-06-10T07:36:23.597Z,17.30
2019-06-10T07:38:53.988Z,17.40
2019-06-10T07:41:23.263Z,17.40
2019-06-10T07:43:53.110Z,17.40
2019-06-10T07:46:23.101Z,17.40
2019-06-10T07:48:56.347Z,17.40
2019-06-10T07:51:22.841Z,17.40
2019-06-10T07:53:52.577Z,17.40
2019-06-10T07:56:23.377Z,17.40
2019-06-10T07:58:52.979Z,17.40
2019-06-10T08:01:23.069Z,17.50
2019-06-10T08:03:52.717Z,17.50
2019-06-10T08:06:22.832Z,17.50
2019-06-10T08:08:53.116Z,17.60
2019-06-10T08:11:22.891Z,17.60
2019-06-10T08:13:54.026Z,17.60
2019-06-10T08:16:23.696Z,17.70
2019-06-10T08:19:20.575Z,17.80
2019-06-10T08:21:23.300Z,17.80
2019-06-10T08:23:56.286Z,17.90
2019-06-10T08:26:25.153Z,17.90
2019-06-10T08:28:54.020Z,17.90
2019-06-10T08:31:22.910Z,18.00
2019-06-10T08:33:53.459Z,18.00
2019-06-10T08:36:23.074Z,18.00
2019-06-10T08:38:52.655Z,18.00
2019-06-10T08:41:23.055Z,18.10
2019-06-10T08:43:53.064Z,18.20
2019-06-10T08:46:22.553Z,18.20
2019-06-10T08:48:52.547Z,18.20
2019-06-10T08:51:23.663Z,18.30
2019-06-10T08:53:53.132Z,18.30
2019-06-10T08:56:22.508Z,18.30
2019-06-10T08:58:53.791Z,18.30
2019-06-10T09:01:22.478Z,18.30
2019-06-10T09:03:53.680Z,18.40
2019-06-10T09:06:23.116Z,18.40
2019-06-10T09:08:54.562Z,18.30
2019-06-10T09:11:23.786Z,18.30
2019-06-10T09:13:53.382Z,18.30
2019-06-10T09:16:22.820Z,18.30
2019-06-10T09:18:54.922Z,18.30
2019-06-10T09:21:22.501Z,18.30
2019-06-10T09:23:58.624Z,18.30
2019-06-10T09:26:22.886Z,18.30
2019-06-10T09:28:56.225Z,18.30
2019-06-10T09:31:23.906Z,18.30
2019-06-10T09:33:56.663Z,18.30
2019-06-10T09:36:23.716Z,18.40
2019-06-10T09:38:54.956Z,18.40
2019-06-10T09:41:36.008Z,18.50
2019-06-10T09:43:56.936Z,18.50
2019-06-10T09:46:25.754Z,18.60
2019-06-10T09:48:56.632Z,18.60
2019-06-10T09:51:26.388Z,18.70
2019-06-10T09:54:03.094Z,18.70
2019-06-10T09:56:25.856Z,18.80
2019-06-10T09:58:55.411Z,18.80
2019-06-10T10:01:24.755Z,18.80
2019-06-10T10:03:59.711Z,18.80
2019-06-10T10:06:24.679Z,18.90
2019-06-10T10:08:58.186Z,18.90
2019-06-10T10:11:28.289Z,18.90
2019-06-10T10:13:55.244Z,19.10
2019-06-10T10:16:24.079Z,19.20
2019-06-10T10:19:00.268Z,19.30
2019-06-10T10:21:23.460Z,19.40
2019-06-10T10:24:06.259Z,19.60
2019-06-10T10:26:22.807Z,19.60
2019-06-10T10:28:53.231Z,19.60
2019-06-10T10:31:23.320Z,19.60
2019-06-10T10:33:52.750Z,19.60
2019-06-10T10:36:22.642Z,19.70
2019-06-10T10:38:52.329Z,19.80
2019-06-10T10:41:23.432Z,19.90
2019-06-10T10:43:58.119Z,20.00
2019-06-10T10:46:23.519Z,19.90
2019-06-10T10:48:56.041Z,20.00
2019-06-10T10:51:23.257Z,20.00
2019-06-10T10:54:18.764Z,20.10
2019-06-10T10:56:22.641Z,20.20
2019-06-10T10:58:55.611Z,20.20
2019-06-10T11:01:23.554Z,20.30
2019-06-10T11:03:58.887Z,20.40
2019-06-10T11:06:23.481Z,20.60
2019-06-10T11:08:57.417Z,20.70
2019-06-10T11:11:24.251Z,20.70
2019-06-10T11:13:56.786Z,20.80
2019-06-10T11:16:24.115Z,20.90
2019-06-10T11:18:56.149Z,21.00
2019-06-10T11:21:23.512Z,21.10
2019-06-10T11:23:56.918Z,21.20
2019-06-10T11:26:26.111Z,21.30
2019-06-10T11:28:55.629Z,21.40
2019-06-10T11:31:23.955Z,21.50
2019-06-10T11:33:57.043Z,21.50
2019-06-10T11:36:23.474Z,21.50
2019-06-10T11:38:55.155Z,21.50
2019-06-10T11:41:23.638Z,21.60
2019-06-10T11:43:56.044Z,21.60
2019-06-10T11:46:23.251Z,21.70
2019-06-10T11:48:55.650Z,21.80
2019-06-10T11:51:23.486Z,21.90
2019-06-10T11:53:54.569Z,22.00
2019-06-10T11:56:22.985Z,22.10
2019-06-10T11:58:55.182Z,22.10
2019-06-10T12:01:23.010Z,22.10
2019-06-10T12:03:55.363Z,22.00
2019-06-10T12:06:22.921Z,21.90
2019-06-10T12:08:56.919Z,21.90
2019-06-10T12:11:23.061Z,22.00
2019-06-10T12:13:56.994Z,22.10
2019-06-10T12:18:56.701Z,22.40
2019-06-10T12:21:24.792Z,22.60
2019-06-10T12:23:57.682Z,22.60
2019-06-10T12:26:24.379Z,22.70
2019-06-10T12:28:56.295Z,22.80
2019-06-10T12:31:23.742Z,22.80
2019-06-10T12:33:55.352Z,22.70
2019-06-10T12:36:23.789Z,22.80
2019-06-10T12:38:56.406Z,22.90
2019-06-10T12:41:23.497Z,22.90
2019-06-10T12:43:53.551Z,22.80
2019-06-10T12:46:23.411Z,22.80
2019-06-10T12:48:53.976Z,22.70
2019-06-10T12:51:23.048Z,22.60
2019-06-10T12:53:53.165Z,22.50
2019-06-10T12:56:22.847Z,22.60
2019-06-10T12:58:54.116Z,22.60
2019-06-10T13:01:32.983Z,22.60
2019-06-10T13:04:05.539Z,22.60
2019-06-10T13:06:34.032Z,22.60
2019-06-10T13:09:06.405Z,22.60
2019-06-10T13:11:35.444Z,22.50
2019-06-10T13:14:06.590Z,22.40
2019-06-10T13:16:35.074Z,22.40
2019-06-10T13:19:06.150Z,22.40
2019-06-10T13:21:34.599Z,22.40
2019-06-10T13:24:05.276Z,22.40
2019-06-10T13:26:36.089Z,22.30
2019-06-10T13:29:08.003Z,22.30
2019-06-10T13:31:35.573Z,22.20
2019-06-10T13:34:09.067Z,22.20
2019-06-10T13:36:35.327Z,22.10
2019-06-10T13:39:08.678Z,22.10
2019-06-10T13:41:36.492Z,22.10
2019-06-10T13:44:06.329Z,22.10
2019-06-10T13:46:35.427Z,22.10
2019-06-10T13:49:06.844Z,22.10
2019-06-10T13:51:35.624Z,22.20
2019-06-10T13:54:06.368Z,22.20
2019-06-10T13:56:45.732Z,22.20
2019-06-10T13:59:08.059Z,22.30
2019-06-10T14:01:36.368Z,22.20
2019-06-10T14:04:12.781Z,22.20
2019-06-10T14:06:46.319Z,22.20
2019-06-10T14:09:11.241Z,22.10
2019-06-10T14:11:37.672Z,22.10
2019-06-10T14:14:07.642Z,22.00
2019-06-10T14:16:36.551Z,22.00
2019-06-10T14:19:07.306Z,21.90
2019-06-10T14:21:35.951Z,21.80
2019-06-10T14:24:06.081Z,21.80
2019-06-10T14:26:42.038Z,21.80
2019-06-10T14:29:06.250Z,21.70
2019-06-10T14:31:43.398Z,21.60
2019-06-10T14:34:09.156Z,21.60
2019-06-10T14:36:37.352Z,21.50
2019-06-10T14:39:08.166Z,21.40
2019-06-10T14:41:37.083Z,21.30
2019-06-10T14:44:06.837Z,21.30
2019-06-10T14:46:35.894Z,21.30
2019-06-10T14:49:04.786Z,21.20
2019-06-10T14:51:33.579Z,21.20
2019-06-10T14:54:03.100Z,21.20
2019-06-10T14:56:33.327Z,21.20
2019-06-10T14:59:02.509Z,21.20
2019-06-10T15:01:34.356Z,21.10
2019-06-10T15:04:03.285Z,21.10
2019-06-10T15:06:33.880Z,21.10
2019-06-10T15:09:02.608Z,21.00
2019-06-10T15:11:32.140Z,21.00
2019-06-10T15:14:02.808Z,20.90
2019-06-10T15:16:33.666Z,20.90
2019-06-10T15:19:12.011Z,20.90
2019-06-10T15:21:33.075Z,20.80
2019-06-10T15:24:03.002Z,20.80
2019-06-10T15:26:32.643Z,20.80
2019-06-10T15:29:02.754Z,20.70
2019-06-10T15:31:31.829Z,20.70
2019-06-10T15:34:02.749Z,20.60
2019-06-10T15:36:32.705Z,20.60
2019-06-10T15:39:01.651Z,20.50
2019-06-10T15:41:32.317Z,20.50
2019-06-10T15:44:02.534Z,20.40
2019-06-10T15:46:32.358Z,20.40
2019-06-10T15:49:02.397Z,20.30
2019-06-10T15:51:33.149Z,20.30
2019-06-10T15:54:02.569Z,20.20
2019-06-10T15:56:45.656Z,20.10
2019-06-10T15:59:02.954Z,20.00
2019-06-10T16:01:33.219Z,19.90
2019-06-10T16:04:02.091Z,19.80
2019-06-10T16:06:32.922Z,19.70
2019-06-10T16:09:03.033Z,19.50
2019-06-10T16:11:33.085Z,19.40
2019-06-10T16:14:02.884Z,19.30
2019-06-10T16:16:32.481Z,19.20
2019-06-10T16:19:02.267Z,19.10
2019-06-10T16:21:31.704Z,19.10
2019-06-10T16:24:02.735Z,19.00
2019-06-10T16:26:31.803Z,18.90
2019-06-10T16:29:02.648Z,18.80
2019-06-10T16:31:31.156Z,18.70
2019-06-10T16:34:00.028Z,18.60
2019-06-10T16:36:28.861Z,18.50
2019-06-10T16:38:57.808Z,18.40
2019-06-10T16:41:28.083Z,18.30
2019-06-10T16:43:57.334Z,18.30
2019-06-10T16:46:26.935Z,18.20
2019-06-10T16:48:55.975Z,18.20
2019-06-10T16:51:27.881Z,18.20
2019-06-10T16:53:57.192Z,18.10
2019-06-10T16:56:30.264Z,18.00
2019-06-10T16:58:59.687Z,18.00
2019-06-10T17:01:30.305Z,17.90
2019-06-10T17:03:59.619Z,17.90
2019-06-10T17:06:30.074Z,17.80
2019-06-10T17:09:02.842Z,17.80
2019-06-10T17:11:31.411Z,17.80
2019-06-10T17:14:00.302Z,17.70
2019-06-10T17:16:29.630Z,17.70
2019-06-10T17:18:59.030Z,17.70
2019-06-10T17:21:30.154Z,17.70
2019-06-10T17:23:59.759Z,17.80
2019-06-10T17:26:34.481Z,17.80
2019-06-10T17:28:59.255Z,17.80
2019-06-10T17:31:31.740Z,17.70
2019-06-10T17:33:58.806Z,17.70
2019-06-10T17:36:30.587Z,17.70
2019-06-10T17:38:58.329Z,17.60
2019-06-10T17:41:29.339Z,17.60
2019-06-10T17:43:57.853Z,17.60
2019-06-10T17:46:27.955Z,17.60
2019-06-10T17:48:57.274Z,17.60
2019-06-10T17:51:27.715Z,17.60
2019-06-10T17:53:56.672Z,17.70
2019-06-10T17:56:26.677Z,17.70
2019-06-10T17:59:03.142Z,17.60
2019-06-10T18:01:33.812Z,17.60
2019-06-10T18:04:02.617Z,17.60
2019-06-10T18:06:34.418Z,17.60
2019-06-10T18:09:04.009Z,17.50
2019-06-10T18:11:34.497Z,17.60
2019-06-10T18:14:03.052Z,17.50
2019-06-10T18:16:35.896Z,17.50
2019-06-10T18:19:03.369Z,17.50
2019-06-10T18:21:33.494Z,17.50
2019-06-10T18:24:07.343Z,17.50
2019-06-10T18:26:35.911Z,17.50
2019-06-10T18:29:08.657Z,17.50
2019-06-10T18:31:35.681Z,17.50
2019-06-10T18:34:04.910Z,17.50
2019-06-10T18:36:35.819Z,17.40
2019-06-10T18:39:06.352Z,17.40
2019-06-10T18:41:35.231Z,17.30
2019-06-10T18:44:18.951Z,17.30
2019-06-10T18:46:36.441Z,17.30
2019-06-10T18:49:05.592Z,17.30
2019-06-10T18:51:36.960Z,17.30
2019-06-10T18:54:05.138Z,17.20
2019-06-10T18:56:35.661Z,17.20
2019-06-10T18:59:15.664Z,17.20
2019-06-10T19:01:35.057Z,17.20
2019-06-10T19:04:04.047Z,17.20
2019-06-10T19:06:33.832Z,17.20
2019-06-10T19:09:03.785Z,17.20
2019-06-10T19:11:34.142Z,17.20
2019-06-10T19:14:03.487Z,17.20
2019-06-10T19:16:34.160Z,17.20
2019-06-10T19:19:03.132Z,17.20
2019-06-10T19:21:32.375Z,17.20
2019-06-10T19:24:03.266Z,17.10
2019-06-10T19:26:33.984Z,17.10
2019-06-10T19:29:03.767Z,17.10
2019-06-10T19:31:36.233Z,17.10
2019-06-10T19:34:03.592Z,17.00
2019-06-10T19:36:33.596Z,17.00
2019-06-10T19:39:02.961Z,17.00
2019-06-10T19:41:34.894Z,17.00
2019-06-10T19:44:02.584Z,17.00
2019-06-10T19:46:32.874Z,17.00
2019-06-10T19:49:06.246Z,16.90
2019-06-10T19:51:34.354Z,16.90
2019-06-10T19:54:03.746Z,16.90
2019-06-10T19:56:33.097Z,16.90
2019-06-10T19:59:02.099Z,16.80
2019-06-10T20:01:35.129Z,16.80
2019-06-10T20:04:02.789Z,16.80
2019-06-10T20:06:32.328Z,16.80
2019-06-10T20:09:02.712Z,16.80
2019-06-10T20:11:32.209Z,16.70
2019-06-10T20:14:02.601Z,16.70
2019-06-10T20:16:31.587Z,16.70
2019-06-10T20:19:02.865Z,16.70
2019-06-10T20:21:32.861Z,16.60
2019-06-10T20:24:02.814Z,16.60
2019-06-10T20:26:32.968Z,16.60
2019-06-10T20:29:05.699Z,16.60
2019-06-10T20:31:35.797Z,16.50
2019-06-10T20:34:04.823Z,16.50
2019-06-10T20:36:33.694Z,16.50
2019-06-10T20:39:02.526Z,16.50
2019-06-10T20:41:31.395Z,16.50
2019-06-10T20:44:02.670Z,16.40
2019-06-10T20:46:32.342Z,16.40
2019-06-10T20:49:03.245Z,16.40
2019-06-10T20:51:36.506Z,16.30
2019-06-10T20:54:02.628Z,16.30
2019-06-10T20:56:33.685Z,16.30
2019-06-10T20:59:02.754Z,16.20
2019-06-10T21:01:33.199Z,16.20
2019-06-10T21:04:03.983Z,16.20
2019-06-10T21:06:34.700Z,16.20
2019-06-10T21:09:06.267Z,16.10
2019-06-10T21:11:35.347Z,16.10
2019-06-10T21:14:04.488Z,16.00
2019-06-10T21:16:33.349Z,16.00
2019-06-10T21:19:02.198Z,15.90
2019-06-10T21:21:32.663Z,15.90
2019-06-10T21:24:02.246Z,15.90
2019-06-10T21:26:32.547Z,15.90
2019-06-10T21:29:03.804Z,15.80
2019-06-10T21:31:32.662Z,15.80
2019-06-10T21:34:02.959Z,15.70
2019-06-10T21:36:32.216Z,15.70
2019-06-10T21:39:02.816Z,15.70
2019-06-10T21:41:31.865Z,15.60
2019-06-10T21:44:03.095Z,15.70
2019-06-10T21:46:32.625Z,15.60
2019-06-10T21:49:01.649Z,15.50
2019-06-10T21:51:34.087Z,15.50
2019-06-10T21:54:02.968Z,15.40
2019-06-10T21:56:32.791Z,15.40
2019-06-10T21:59:02.478Z,15.40
2019-06-10T22:01:32.601Z,15.40
2019-06-10T22:04:04.384Z,15.40
2019-06-10T22:06:33.101Z,15.40
2019-06-10T22:09:04.042Z,15.40
2019-06-10T22:11:32.731Z,15.40
2019-06-10T22:14:02.787Z,15.40
2019-06-10T22:16:32.910Z,15.40
2019-06-10T22:19:03.173Z,15.40
2019-06-10T22:21:32.670Z,15.40
2019-06-10T22:24:02.264Z,15.40
2019-06-10T22:26:32.246Z,15.40
2019-06-10T22:29:01.367Z,15.50
2019-06-10T22:31:32.644Z,15.40
2019-06-10T22:34:03.218Z,15.40
2019-06-10T22:36:32.660Z,15.40
2019-06-10T22:39:03.268Z,15.50
2019-06-10T22:41:32.116Z,15.50
2019-06-10T22:44:03.286Z,15.50
2019-06-10T22:46:32.135Z,15.50
2019-06-10T22:49:03.046Z,15.50
2019-06-10T22:51:32.916Z,15.60
2019-06-10T22:54:03.605Z,15.60
2019-06-10T22:56:32.827Z,15.60
2019-06-10T22:59:03.388Z,15.60
2019-06-10T23:01:37.886Z,15.60
2019-06-10T23:04:03.800Z,15.60
2019-06-10T23:06:36.048Z,15.60
2019-06-10T23:09:06.519Z,15.60
2019-06-10T23:11:35.351Z,15.70
2019-06-10T23:14:04.227Z,15.70
2019-06-10T23:16:33.065Z,15.70
2019-06-10T23:19:02.957Z,15.70
2019-06-10T23:21:32.011Z,15.70
2019-06-10T23:24:03.093Z,15.70
2019-06-10T23:26:33.211Z,15.70
2019-06-10T23:29:03.267Z,15.80
2019-06-10T23:31:40.525Z,15.80
2019-06-10T23:34:02.931Z,15.80
2019-06-10T23:36:32.674Z,15.80
2019-06-10T23:39:03.791Z,15.80
2019-06-10T23:41:32.875Z,15.80
2019-06-10T23:44:04.220Z,15.80
2019-06-10T23:46:32.368Z,15.80
2019-06-10T23:49:04.384Z,15.80
2019-06-10T23:51:33.271Z,15.80
2019-06-10T23:54:05.738Z,15.80
2019-06-10T23:56:32.723Z,15.80
2019-06-10T23:59:03.490Z,15.80
